createdAt,value
2023-05-17T00:02:26.443Z,13.25
2023-05-17T00:04:53.704Z,10.32
2023-05-17T00:07:20.535Z,11.48
2023-05-17T00:09:49.496Z,13.50
2023-05-17T00:14:45.009Z,9.43
2023-05-17T00:17:11.668Z,13.75
2023-05-17T00:19:45.302Z,13.02
2023-05-17T00:22:14.418Z,10.70
2023-05-17T00:24:43.488Z,12.13
2023-05-17T00:27:12.603Z,13.35
2023-05-17T00:29:39.228Z,8.55
2023-05-17T00:32:08.339Z,11.55
2023-05-17T00:34:37.238Z,12.38
2023-05-17T00:39:34.635Z,8.93
2023-05-17T00:42:03.380Z,9.30
2023-05-17T00:44:30.112Z,10.02
2023-05-17T00:46:59.658Z,11.55
2023-05-17T00:49:31.615Z,15.98
2023-05-17T00:51:59.414Z,12.82
2023-05-17T00:54:28.865Z,9.45
2023-05-17T00:56:57.741Z,17.27
2023-05-17T00:59:26.211Z,9.27
2023-05-17T01:01:53.978Z,10.85
2023-05-17T01:04:25.490Z,9.80
2023-05-17T01:06:56.534Z,9.73
2023-05-17T01:09:25.472Z,9.10
2023-05-17T01:15:03.419Z,8.75
2023-05-17T01:17:54.367Z,9.60
2023-05-17T01:20:29.356Z,10.02
2023-05-17T01:23:32.998Z,9.35
2023-05-17T01:26:15.751Z,12.68
2023-05-17T01:28:46.331Z,12.43
2023-05-17T01:31:17.214Z,7.47
2023-05-17T01:33:46.588Z,10.38
2023-05-17T01:36:13.310Z,14.93
2023-05-17T01:38:42.462Z,14.07
2023-05-17T01:41:34.304Z,9.82
2023-05-17T01:44:29.762Z,11.45
2023-05-17T01:47:15.894Z,9.45
2023-05-17T01:49:52.001Z,11.70
2023-05-17T01:52:26.648Z,12.80
2023-05-17T01:55:09.087Z,13.45
2023-05-17T01:57:37.233Z,13.65
2023-05-17T02:00:09.426Z,9.73
2023-05-17T02:02:36.514Z,9.65
2023-05-17T02:05:03.394Z,9.85
2023-05-17T02:07:34.843Z,10.50
2023-05-17T02:10:03.865Z,11.35
2023-05-17T02:12:32.809Z,9.68
2023-05-17T02:15:02.160Z,8.10
2023-05-17T02:17:28.933Z,10.18
2023-05-17T02:20:00.648Z,9.38
2023-05-17T02:22:29.744Z,13.32
2023-05-17T02:24:56.645Z,12.00
2023-05-17T02:27:25.929Z,14.18
2023-05-17T02:29:54.656Z,13.05
2023-05-17T02:32:23.753Z,16.35
2023-05-17T02:34:50.368Z,11.82
2023-05-17T02:37:16.947Z,11.98
2023-05-17T02:39:48.813Z,10.25
2023-05-17T02:42:15.430Z,10.88
2023-05-17T02:44:42.026Z,11.25
2023-05-17T02:47:08.615Z,11.15
2023-05-17T02:49:37.550Z,13.70
2023-05-17T02:52:06.657Z,13.82
2023-05-17T02:54:35.883Z,14.82
2023-05-17T02:57:04.879Z,18.95
2023-05-17T03:02:03.229Z,15.70
2023-05-17T03:04:33.319Z,18.45
2023-05-17T03:07:02.124Z,19.58
2023-05-17T03:09:31.192Z,18.15
2023-05-17T03:14:26.498Z,13.75
2023-05-17T03:16:55.338Z,17.58
2023-05-17T03:19:22.020Z,17.08
2023-05-17T03:21:51.060Z,20.80
2023-05-17T03:26:44.213Z,19.75
2023-05-17T03:29:10.901Z,18.85
2023-05-17T03:31:37.749Z,21.30
2023-05-17T03:34:09.889Z,24.65
2023-05-17T03:36:41.159Z,19.40
2023-05-17T03:39:07.983Z,14.57
2023-05-17T03:41:34.862Z,17.13
2023-05-17T03:44:04.198Z,16.42
2023-05-17T03:46:33.787Z,15.95
2023-05-17T03:49:02.951Z,15.90
2023-05-17T03:51:34.738Z,11.35
2023-05-17T03:54:01.609Z,12.68
2023-05-17T03:56:31.715Z,11.38
2023-05-17T03:58:58.460Z,12.93
2023-05-17T04:01:27.893Z,14.73
2023-05-17T04:03:56.988Z,13.48
2023-05-17T04:06:26.948Z,15.90
2023-05-17T04:08:56.024Z,13.82
2023-05-17T04:11:24.379Z,16.48
2023-05-17T04:13:54.434Z,14.93
2023-05-17T04:16:21.315Z,15.07
2023-05-17T04:18:47.965Z,13.30
2023-05-17T04:21:17.054Z,13.23
2023-05-17T04:23:43.655Z,10.85
2023-05-17T04:26:12.555Z,12.68
2023-05-17T04:28:41.746Z,16.90
2023-05-17T04:31:11.620Z,14.63
2023-05-17T04:33:40.689Z,14.82
2023-05-17T04:36:09.805Z,13.02
2023-05-17T04:38:40.923Z,16.30
2023-05-17T04:41:10.238Z,15.98
2023-05-17T04:43:40.081Z,15.50
2023-05-17T04:46:08.961Z,12.95
2023-05-17T04:48:36.235Z,13.20
2023-05-17T04:51:06.872Z,14.50
2023-05-17T04:53:36.095Z,14.57
2023-05-17T04:56:04.254Z,12.60
2023-05-17T04:58:31.895Z,17.70
2023-05-17T05:00:58.555Z,14.25
2023-05-17T05:03:29.956Z,13.77
2023-05-17T05:05:56.652Z,14.25
2023-05-17T05:08:25.708Z,12.75
2023-05-17T05:10:54.670Z,11.50
2023-05-17T05:18:15.224Z,14.48
2023-05-17T05:20:46.245Z,17.45
2023-05-17T05:23:15.596Z,16.10
2023-05-17T05:25:44.753Z,13.85
2023-05-17T05:28:12.250Z,15.50
2023-05-17T05:30:39.505Z,11.20
2023-05-17T05:33:06.274Z,15.52
2023-05-17T05:35:33.179Z,14.48
2023-05-17T05:38:01.960Z,16.50
2023-05-17T05:40:28.827Z,14.88
2023-05-17T05:43:00.528Z,13.32
2023-05-17T05:45:27.223Z,12.55
2023-05-17T05:47:58.762Z,14.27
2023-05-17T05:50:27.765Z,14.23
2023-05-17T05:52:58.069Z,12.48
2023-05-17T05:55:36.371Z,13.43
2023-05-17T05:58:05.171Z,11.73
2023-05-17T06:00:37.218Z,13.32
2023-05-17T06:03:05.159Z,13.15
2023-05-17T06:05:34.128Z,14.10
2023-05-17T06:08:03.814Z,12.95
2023-05-17T06:10:33.921Z,12.68
2023-05-17T06:13:05.010Z,16.05
2023-05-17T06:15:32.011Z,14.40
2023-05-17T06:18:03.708Z,19.33
2023-05-17T06:20:35.336Z,14.27
2023-05-17T06:23:05.263Z,15.05
2023-05-17T06:25:34.392Z,17.23
2023-05-17T06:28:02.912Z,14.07
2023-05-17T06:30:32.305Z,13.82
2023-05-17T06:33:04.645Z,14.20
2023-05-17T06:35:54.958Z,19.55
2023-05-17T06:38:22.960Z,18.75
2023-05-17T06:40:54.443Z,13.93
2023-05-17T06:43:23.493Z,12.18
2023-05-17T06:45:50.417Z,13.80
2023-05-17T06:48:19.342Z,15.32
2023-05-17T06:50:48.272Z,13.77
2023-05-17T06:55:43.757Z,17.88
2023-05-17T06:58:10.430Z,17.80
2023-05-17T07:00:37.186Z,19.17
2023-05-17T07:03:08.825Z,15.57
2023-05-17T07:05:37.814Z,14.40
2023-05-17T07:10:33.302Z,14.52
2023-05-17T07:15:31.265Z,18.38
2023-05-17T07:17:59.474Z,14.65
2023-05-17T07:20:26.323Z,19.30
2023-05-17T07:22:52.936Z,17.02
2023-05-17T07:25:21.524Z,16.23
2023-05-17T07:27:49.221Z,17.33
2023-05-17T07:30:18.459Z,14.45
2023-05-17T07:32:47.476Z,12.23
2023-05-17T07:35:17.175Z,13.93
2023-05-17T07:37:44.444Z,16.83
2023-05-17T07:40:11.460Z,13.82
2023-05-17T07:42:38.183Z,13.70
2023-05-17T07:45:07.523Z,14.93
2023-05-17T07:47:36.709Z,12.65
2023-05-17T07:50:04.695Z,14.15
2023-05-17T07:52:33.789Z,14.38
2023-05-17T07:55:00.492Z,14.77
2023-05-17T07:57:27.438Z,14.23
2023-05-17T07:59:54.060Z,15.65
2023-05-17T08:02:23.178Z,17.20
2023-05-17T08:04:54.831Z,16.45
2023-05-17T08:07:24.526Z,12.45
2023-05-17T08:09:51.204Z,10.27
2023-05-17T08:12:20.592Z,14.18
2023-05-17T08:14:50.133Z,12.60
2023-05-17T08:17:22.390Z,13.07
2023-05-17T08:19:49.149Z,15.60
2023-05-17T08:22:20.524Z,12.93
2023-05-17T08:24:52.646Z,17.70
2023-05-17T08:27:19.265Z,15.85
2023-05-17T08:29:45.883Z,12.98
2023-05-17T08:32:12.523Z,11.85
2023-05-17T08:34:41.428Z,15.10
2023-05-17T08:39:34.960Z,12.52
2023-05-17T08:42:09.593Z,14.32
2023-05-17T08:44:38.782Z,17.15
2023-05-17T08:47:09.331Z,16.25
2023-05-17T08:49:37.870Z,13.05
2023-05-17T08:52:10.530Z,15.45
2023-05-17T08:54:42.583Z,15.65
2023-05-17T08:57:14.000Z,15.50
2023-05-17T08:59:43.369Z,12.65
2023-05-17T09:02:13.316Z,14.07
2023-05-17T09:04:41.046Z,15.52
2023-05-17T09:07:07.881Z,19.25
2023-05-17T09:09:37.181Z,13.18
2023-05-17T09:12:07.237Z,12.70
2023-05-17T09:14:39.127Z,12.18
2023-05-17T09:17:06.159Z,13.30
2023-05-17T09:19:46.366Z,16.45
2023-05-17T09:22:15.194Z,13.38
2023-05-17T09:24:42.517Z,15.00
2023-05-17T09:27:11.936Z,12.15
2023-05-17T09:29:39.693Z,17.02
2023-05-17T09:32:17.868Z,15.10
2023-05-17T09:34:47.042Z,18.25
2023-05-17T09:37:17.440Z,19.30
2023-05-17T09:39:48.553Z,18.55
2023-05-17T09:42:18.309Z,15.57
2023-05-17T09:44:59.983Z,10.88
2023-05-17T09:47:30.563Z,13.52
2023-05-17T09:50:00.829Z,13.10
2023-05-17T09:52:31.912Z,12.70
2023-05-17T09:55:03.067Z,13.35
2023-05-17T09:57:37.921Z,9.73
2023-05-17T10:00:14.974Z,10.55
2023-05-17T10:02:48.220Z,9.25
2023-05-17T10:05:17.210Z,9.05
2023-05-17T10:07:48.529Z,8.27
2023-05-17T10:10:15.669Z,10.82
2023-05-17T10:12:45.561Z,8.88
2023-05-17T10:15:12.936Z,10.23
2023-05-17T10:17:45.715Z,8.68
2023-05-17T10:20:14.486Z,7.72
2023-05-17T10:22:42.624Z,7.18
2023-05-17T10:25:15.021Z,8.40
2023-05-17T10:27:42.025Z,7.50
2023-05-17T10:30:10.147Z,12.15
2023-05-17T10:32:36.987Z,7.63
2023-05-17T10:35:11.473Z,7.32
2023-05-17T10:40:07.331Z,8.48
2023-05-17T10:42:36.644Z,7.47
2023-05-17T10:45:06.661Z,8.15
2023-05-17T10:47:34.561Z,7.82
2023-05-17T10:50:13.179Z,6.82
2023-05-17T10:52:47.235Z,8.75
2023-05-17T10:55:25.082Z,7.45
2023-05-17T10:58:21.221Z,7.38
2023-05-17T11:00:55.874Z,8.48
2023-05-17T11:03:34.554Z,8.55
2023-05-17T11:06:25.405Z,8.10
2023-05-17T11:09:16.704Z,9.52
2023-05-17T11:12:06.342Z,7.47
2023-05-17T11:14:58.432Z,9.15
2023-05-17T11:17:36.401Z,6.68
2023-05-17T11:20:16.975Z,8.18
2023-05-17T11:22:55.427Z,10.23
2023-05-17T11:25:22.063Z,7.78
2023-05-17T11:27:51.700Z,8.05
2023-05-17T11:30:21.608Z,7.15
2023-05-17T11:32:53.515Z,7.13
2023-05-17T11:35:26.790Z,5.60
2023-05-17T11:38:24.067Z,6.68
2023-05-17T11:40:56.081Z,6.50
2023-05-17T11:43:31.290Z,4.75
2023-05-17T11:46:02.532Z,5.70
2023-05-17T11:48:32.696Z,6.07
2023-05-17T11:51:01.495Z,6.63
2023-05-17T11:53:31.091Z,4.93
2023-05-17T11:56:03.080Z,8.35
2023-05-17T11:58:34.263Z,7.38
2023-05-17T12:01:00.993Z,6.20
2023-05-17T12:03:32.292Z,5.70
2023-05-17T12:06:09.783Z,6.03
2023-05-17T12:08:43.101Z,8.68
2023-05-17T12:11:13.423Z,7.40
2023-05-17T12:13:42.822Z,6.55
2023-05-17T12:16:18.272Z,6.13
2023-05-17T12:18:49.709Z,5.97
2023-05-17T12:21:21.371Z,7.47
2023-05-17T12:23:51.595Z,5.50
2023-05-17T12:26:26.168Z,6.18
2023-05-17T12:28:57.407Z,4.47
2023-05-17T12:31:32.879Z,5.47
2023-05-17T12:34:02.983Z,4.97
2023-05-17T12:36:33.741Z,7.22
2023-05-17T12:39:01.730Z,6.28
2023-05-17T12:41:29.738Z,5.85
2023-05-17T12:44:13.865Z,4.95
2023-05-17T12:46:41.885Z,5.78
2023-05-17T12:49:12.343Z,5.85
2023-05-17T12:51:46.206Z,6.28
2023-05-17T12:54:16.289Z,7.82
2023-05-17T12:56:46.655Z,5.50
2023-05-17T12:59:25.508Z,4.65
2023-05-17T13:01:56.718Z,5.70
2023-05-17T13:04:34.565Z,4.28
2023-05-17T13:07:03.560Z,5.20
2023-05-17T13:12:00.929Z,6.63
2023-05-17T13:14:47.291Z,4.90
2023-05-17T13:17:44.952Z,5.85
2023-05-17T13:20:11.817Z,4.85
2023-05-17T13:22:48.807Z,4.72
2023-05-17T13:25:20.795Z,4.63
2023-05-17T13:27:48.630Z,15.13
2023-05-17T13:30:17.864Z,5.82
2023-05-17T13:32:45.189Z,4.57
2023-05-17T13:35:12.062Z,6.93
2023-05-17T13:37:38.760Z,4.85
2023-05-17T13:40:06.052Z,4.40
2023-05-17T13:42:34.925Z,4.50
2023-05-17T13:47:33.586Z,3.03
2023-05-17T13:50:01.017Z,2.97
2023-05-17T13:52:27.836Z,4.20
2023-05-17T13:54:56.982Z,5.68
2023-05-17T13:57:28.437Z,3.78
2023-05-17T13:59:55.114Z,3.90
2023-05-17T14:02:21.858Z,3.90
2023-05-17T14:04:53.816Z,3.53
2023-05-17T14:07:24.917Z,4.80
2023-05-17T14:09:54.344Z,5.03
2023-05-17T14:12:21.240Z,4.03
2023-05-17T14:14:47.878Z,5.45
2023-05-17T14:17:19.510Z,3.55
2023-05-17T14:19:48.499Z,3.20
2023-05-17T14:22:15.207Z,7.68
2023-05-17T14:24:41.845Z,3.22
2023-05-17T14:27:08.407Z,4.00
2023-05-17T14:29:39.880Z,3.53
2023-05-17T14:32:09.439Z,3.83
2023-05-17T14:34:36.129Z,4.85
2023-05-17T14:37:02.733Z,3.45
2023-05-17T14:39:29.336Z,3.70
2023-05-17T14:41:55.929Z,4.95
2023-05-17T14:44:25.097Z,5.22
2023-05-17T14:46:54.706Z,3.10
2023-05-17T14:49:23.882Z,4.70
2023-05-17T14:51:50.681Z,3.83
2023-05-17T14:54:21.979Z,5.75
2023-05-17T14:56:51.219Z,6.10
2023-05-17T14:59:17.940Z,2.88
2023-05-17T15:01:44.550Z,4.07
2023-05-17T15:04:13.699Z,4.13
2023-05-17T15:06:41.338Z,3.33
2023-05-17T15:09:13.036Z,3.38
2023-05-17T15:11:40.318Z,3.50
2023-05-17T15:14:09.228Z,3.60
2023-05-17T15:19:05.613Z,2.95
2023-05-17T15:21:32.924Z,3.58
2023-05-17T15:24:01.767Z,3.38
2023-05-17T15:28:59.835Z,2.38
2023-05-17T15:33:57.931Z,3.78
2023-05-17T15:36:24.630Z,2.42
2023-05-17T15:38:56.291Z,2.33
2023-05-17T15:41:29.787Z,2.55
2023-05-17T15:43:56.644Z,2.42
2023-05-17T15:46:25.555Z,4.47
2023-05-17T15:51:26.016Z,2.92
2023-05-17T15:53:52.773Z,2.83
2023-05-17T15:56:23.240Z,3.75
2023-05-17T15:58:50.171Z,4.25
2023-05-17T16:01:16.841Z,2.53
2023-05-17T16:03:46.636Z,2.33
2023-05-17T16:06:14.510Z,2.25
2023-05-17T16:08:41.873Z,3.50
2023-05-17T16:11:09.996Z,2.08
2023-05-17T16:13:36.682Z,2.15
2023-05-17T16:16:06.047Z,2.20
2023-05-17T16:18:33.107Z,2.55
2023-05-17T16:21:03.560Z,3.03
2023-05-17T16:23:32.636Z,3.63
2023-05-17T16:28:28.199Z,2.28
2023-05-17T16:30:57.204Z,2.50
2023-05-17T16:35:50.768Z,3.70
2023-05-17T16:38:17.447Z,2.22
2023-05-17T16:40:46.783Z,2.30
2023-05-17T16:43:16.281Z,1.83
2023-05-17T16:45:44.804Z,1.30
2023-05-17T16:48:15.095Z,1.90
2023-05-17T16:50:43.468Z,2.45
2023-05-17T16:53:10.266Z,3.10
2023-05-17T16:55:39.227Z,57.83
2023-05-17T17:00:39.967Z,1.73
2023-05-17T17:03:10.079Z,1.75
2023-05-17T17:05:42.098Z,1.30
2023-05-17T17:08:08.671Z,1.90
2023-05-17T17:10:35.963Z,1.63
2023-05-17T17:13:05.085Z,1.40
2023-05-17T17:15:34.468Z,2.28
2023-05-17T17:18:03.944Z,2.08
2023-05-17T17:20:30.834Z,3.97
2023-05-17T17:22:57.737Z,2.30
2023-05-17T17:25:24.779Z,2.50
2023-05-17T17:27:53.083Z,2.05
2023-05-17T17:30:20.063Z,3.38
2023-05-17T17:32:51.433Z,2.13
2023-05-17T17:35:18.122Z,1.80
2023-05-17T17:37:44.767Z,1.67
2023-05-17T17:40:13.964Z,3.05
2023-05-17T17:42:40.674Z,2.10
2023-05-17T17:45:10.135Z,2.00
2023-05-17T17:47:38.829Z,3.00
2023-05-17T17:50:08.653Z,3.00
2023-05-17T17:52:36.741Z,2.33
2023-05-17T17:55:03.657Z,2.72
2023-05-17T17:57:35.144Z,2.35
2023-05-17T18:00:04.551Z,3.05
2023-05-17T18:02:36.260Z,2.08
2023-05-17T18:05:03.390Z,2.60
2023-05-17T18:07:32.375Z,2.45
2023-05-17T18:09:59.063Z,2.47
2023-05-17T18:12:27.662Z,2.55
2023-05-17T18:14:54.501Z,2.85
2023-05-17T18:17:21.140Z,2.05
2023-05-17T18:19:50.216Z,3.35
2023-05-17T18:22:17.065Z,2.55
2023-05-17T18:24:46.307Z,2.80
2023-05-17T18:27:15.285Z,1.88
2023-05-17T18:29:42.525Z,4.05
2023-05-17T18:32:11.764Z,2.17
2023-05-17T18:34:43.144Z,2.63
2023-05-17T18:37:09.958Z,2.80
2023-05-17T18:39:41.353Z,2.35
2023-05-17T18:42:08.017Z,3.30
2023-05-17T18:44:35.308Z,2.85
2023-05-17T18:47:04.468Z,3.45
2023-05-17T18:49:36.787Z,6.60
2023-05-17T18:52:09.033Z,2.95
2023-05-17T18:54:35.622Z,3.17
2023-05-17T18:57:11.939Z,3.47
2023-05-17T18:59:40.804Z,3.20
2023-05-17T19:02:15.249Z,3.05
2023-05-17T19:04:42.306Z,4.22
2023-05-17T19:07:08.954Z,4.07
2023-05-17T19:09:35.693Z,4.57
2023-05-17T19:12:02.476Z,3.47
2023-05-17T19:14:29.522Z,2.95
2023-05-17T19:16:57.088Z,4.85
2023-05-17T19:19:25.398Z,3.60
2023-05-17T19:21:54.243Z,3.30
2023-05-17T19:24:23.519Z,3.72
2023-05-17T19:26:52.861Z,3.67
2023-05-17T19:29:22.354Z,3.72
2023-05-17T19:31:49.028Z,4.00
2023-05-17T19:34:15.892Z,3.80
2023-05-17T19:36:42.526Z,4.28
2023-05-17T19:39:09.593Z,3.30
2023-05-17T19:41:42.406Z,3.13
2023-05-17T19:44:08.968Z,3.08
2023-05-17T19:46:35.678Z,3.97
2023-05-17T19:49:07.088Z,3.20
2023-05-17T19:51:33.824Z,4.25
2023-05-17T19:54:00.618Z,2.85
2023-05-17T19:56:27.322Z,4.13
2023-05-17T19:58:54.255Z,3.45
2023-05-17T20:01:23.690Z,3.40
2023-05-17T20:03:50.645Z,4.32
2023-05-17T20:06:17.321Z,3.67
2023-05-17T20:08:46.863Z,3.10
2023-05-17T20:11:13.637Z,3.35
2023-05-17T20:13:43.054Z,3.15
2023-05-17T20:16:13.347Z,2.95
2023-05-17T20:18:44.782Z,3.08
2023-05-17T20:21:15.241Z,3.17
2023-05-17T20:23:42.199Z,3.08
2023-05-17T20:26:15.926Z,3.17
2023-05-17T20:28:44.030Z,2.88
2023-05-17T20:31:15.582Z,3.65
2023-05-17T20:33:44.915Z,2.85
2023-05-17T20:36:14.188Z,5.32
2023-05-17T20:38:49.960Z,2.20
2023-05-17T20:41:16.627Z,3.22
2023-05-17T20:43:46.850Z,3.83
2023-05-17T20:46:17.237Z,3.33
2023-05-17T20:48:49.893Z,2.63
2023-05-17T20:51:22.493Z,3.05
2023-05-17T20:53:49.142Z,3.50
2023-05-17T20:56:17.919Z,3.47
2023-05-17T20:58:50.620Z,3.13
2023-05-17T21:01:17.377Z,2.88
2023-05-17T21:03:49.867Z,2.67
2023-05-17T21:06:16.674Z,2.53
2023-05-17T21:08:48.389Z,2.53
2023-05-17T21:11:18.983Z,4.38
2023-05-17T21:13:45.651Z,2.63
2023-05-17T21:16:14.291Z,3.75
2023-05-17T21:18:45.100Z,2.78
2023-05-17T21:21:12.402Z,3.20
2023-05-17T21:23:41.188Z,2.85
2023-05-17T21:26:10.345Z,3.08
2023-05-17T21:28:36.946Z,2.42
2023-05-17T21:31:03.881Z,2.08
2023-05-17T21:33:32.382Z,2.35
2023-05-17T21:35:59.439Z,3.13
2023-05-17T21:38:26.125Z,2.80
2023-05-17T21:40:53.290Z,3.75
2023-05-17T21:43:22.201Z,2.75
2023-05-17T21:45:51.920Z,3.25
2023-05-17T21:48:21.002Z,2.40
2023-05-17T21:53:14.089Z,2.78
2023-05-17T21:55:56.427Z,2.53
2023-05-17T21:58:30.803Z,2.92
2023-05-17T22:00:59.751Z,2.65
2023-05-17T22:03:26.841Z,1.90
2023-05-17T22:05:56.344Z,2.35
2023-05-17T22:08:23.533Z,3.75
2023-05-17T22:10:56.670Z,2.53
2023-05-17T22:13:26.295Z,3.03
2023-05-17T22:15:57.082Z,2.42
2023-05-17T22:18:27.154Z,3.08
2023-05-17T22:20:59.495Z,4.68
2023-05-17T22:23:26.414Z,2.85
2023-05-17T22:25:53.067Z,3.33
2023-05-17T22:28:23.325Z,2.60
2023-05-17T22:30:50.095Z,2.45
2023-05-17T22:33:16.954Z,2.95
2023-05-17T22:35:43.530Z,2.97
2023-05-17T22:38:12.286Z,1.58
2023-05-17T22:40:41.417Z,2.00
2023-05-17T22:43:10.780Z,2.78
2023-05-17T22:45:40.241Z,1.75
2023-05-17T22:48:07.056Z,2.28
2023-05-17T22:50:38.744Z,2.47
2023-05-17T22:53:07.727Z,1.85
2023-05-17T22:55:34.294Z,2.97
2023-05-17T22:58:05.443Z,3.00
2023-05-17T23:00:36.869Z,3.63
2023-05-17T23:03:03.604Z,2.25
2023-05-17T23:05:36.900Z,2.20
2023-05-17T23:08:07.341Z,4.07
2023-05-17T23:10:33.986Z,2.38
2023-05-17T23:13:00.613Z,2.50
2023-05-17T23:15:30.198Z,2.70
2023-05-17T23:17:59.637Z,2.17
2023-05-17T23:20:27.546Z,2.65
2023-05-17T23:22:54.339Z,2.40
2023-05-17T23:25:23.290Z,3.22
2023-05-17T23:27:49.879Z,3.30
2023-05-17T23:30:19.225Z,1.88
2023-05-17T23:32:51.228Z,3.33
2023-05-17T23:35:18.639Z,2.15
2023-05-17T23:37:46.410Z,2.97
2023-05-17T23:40:14.714Z,1.85
2023-05-17T23:42:41.818Z,1.83
2023-05-17T23:45:11.101Z,1.92
2023-05-17T23:47:41.190Z,1.92
2023-05-17T23:50:13.564Z,3.15
2023-05-17T23:52:40.213Z,4.22
2023-05-17T23:55:07.505Z,2.30
2023-05-17T23:57:35.269Z,2.10
